createdAt,value
2017-11-04T00:00:10.454Z,5.2
2017-11-04T00:05:08.244Z,5.2
2017-11-04T00:10:23.738Z,5.1
2017-11-04T00:15:26.028Z,5.1
2017-11-04T00:20:05.371Z,5.1
2017-11-04T00:25:05.728Z,5
2017-11-04T00:30:05.350Z,5
2017-11-04T00:35:18.337Z,4.9
2017-11-04T00:40:05.790Z,4.8
2017-11-04T00:45:03.128Z,4.8
2017-11-04T00:50:07.777Z,4.8
2017-11-04T00:55:23.305Z,4.7
2017-11-04T01:00:02.669Z,4.7
2017-11-04T01:05:10.613Z,4.6
2017-11-04T01:10:28.479Z,4.6
2017-11-04T01:15:08.066Z,4.7
2017-11-04T01:20:02.640Z,4.6
2017-11-04T01:25:08.095Z,4.6
2017-11-04T01:30:07.792Z,4.6
2017-11-04T01:35:03.002Z,4.6
2017-11-04T01:40:03.077Z,4.7
2017-11-04T01:45:05.525Z,4.6
2017-11-04T01:50:07.681Z,4.5
2017-11-04T01:55:07.983Z,4.5
2017-11-04T02:00:02.556Z,4.5
2017-11-04T02:05:18.222Z,4.4
2017-11-04T02:10:03.252Z,4.4
2017-11-04T02:15:10.474Z,4.3
2017-11-04T02:20:12.650Z,4.3
2017-11-04T02:25:07.853Z,4.2
2017-11-04T02:30:02.419Z,4.2
2017-11-04T02:35:05.267Z,4.3
2017-11-04T02:40:05.484Z,4.3
2017-11-04T02:45:05.234Z,4.3
2017-11-04T02:50:13.364Z,4.2
2017-11-04T02:55:15.342Z,4.2
2017-11-04T03:00:08.233Z,4.2
2017-11-04T03:05:02.555Z,4.2
2017-11-04T03:10:07.785Z,4.2
2017-11-04T03:15:05.095Z,4.2
2017-11-04T03:20:08.217Z,4.2
2017-11-04T03:25:17.635Z,4.4
2017-11-04T03:30:03.148Z,4.4
2017-11-04T03:35:07.493Z,4.6
2017-11-04T03:40:05.031Z,4.6
2017-11-04T03:45:07.477Z,4.7
2017-11-04T03:50:05.610Z,4.8
2017-11-04T03:55:07.518Z,4.8
2017-11-04T04:00:25.837Z,4.9
2017-11-04T04:05:04.998Z,4.9
2017-11-04T04:10:15.189Z,4.9
2017-11-04T04:15:10.036Z,4.8
2017-11-04T04:20:20.756Z,4.8
2017-11-04T04:25:07.559Z,4.7
2017-11-04T04:35:02.412Z,4.7
2017-11-04T04:40:07.621Z,4.8
2017-11-04T04:45:02.455Z,4.7
2017-11-04T04:50:30.980Z,4.9
2017-11-04T04:55:04.980Z,4.9
2017-11-04T05:00:03.030Z,4.9
2017-11-04T05:05:05.041Z,5
2017-11-04T05:10:12.756Z,5
2017-11-04T05:15:02.463Z,4.9
2017-11-04T05:20:38.541Z,5
2017-11-04T05:25:15.195Z,5
2017-11-04T05:30:05.697Z,5
2017-11-04T05:35:02.590Z,5
2017-11-04T05:40:07.798Z,5
2017-11-04T05:45:05.163Z,5
2017-11-04T05:50:15.855Z,4.9
2017-11-04T05:55:20.332Z,4.9
2017-11-04T06:00:05.825Z,4.9
2017-11-04T06:05:05.169Z,4.9
2017-11-04T06:10:25.488Z,4.8
2017-11-04T06:15:02.603Z,4.8
2017-11-04T06:20:10.766Z,4.8
2017-11-04T06:25:02.552Z,4.8
2017-11-04T06:30:10.679Z,4.8
2017-11-04T06:35:04.998Z,4.9
2017-11-04T06:40:10.233Z,4.9
2017-11-04T06:45:05.068Z,5
2017-11-04T06:50:08.200Z,5.1
2017-11-04T06:55:17.728Z,5.1
2017-11-04T07:00:10.819Z,5.1
2017-11-04T07:05:05.102Z,5.2
2017-11-04T07:10:10.368Z,5.2
2017-11-04T07:15:02.672Z,5.2
2017-11-04T07:20:13.454Z,5.3
2017-11-04T07:25:07.741Z,5.4
2017-11-04T07:30:03.302Z,5.4
2017-11-04T07:35:15.385Z,5.5
2017-11-04T07:40:05.484Z,5.6
2017-11-04T07:45:05.321Z,5.6
2017-11-04T07:50:07.474Z,5.7
2017-11-04T07:55:02.860Z,5.6
2017-11-04T08:00:15.215Z,5.8
2017-11-04T08:05:02.908Z,5.8
2017-11-04T08:10:03.084Z,5.9
2017-11-04T08:15:05.569Z,6.2
2017-11-04T08:20:05.273Z,6.3
2017-11-04T08:25:10.766Z,6.5
2017-11-04T08:30:05.400Z,6.6
2017-11-04T08:35:08.390Z,6.8
2017-11-04T08:45:02.495Z,6.8
2017-11-04T08:50:03.244Z,6.9
2017-11-04T08:55:10.369Z,7.1
2017-11-04T09:00:18.556Z,7.3
2017-11-04T09:10:05.784Z,7.8
2017-11-04T09:15:08.329Z,8
2017-11-04T09:20:05.576Z,8.2
2017-11-04T09:25:02.568Z,8.2
2017-11-04T09:30:21.066Z,8.5
2017-11-04T09:35:08.057Z,8.6
2017-11-04T09:40:05.903Z,8.6
2017-11-04T09:45:10.970Z,8.7
2017-11-04T09:50:05.683Z,8.7
2017-11-04T09:55:05.293Z,8.8
2017-11-04T10:00:15.209Z,8.8
2017-11-04T10:05:10.790Z,8.9
2017-11-04T10:10:07.559Z,8.9
2017-11-04T10:15:05.139Z,9.1
2017-11-04T10:20:28.634Z,9.2
2017-11-04T10:25:05.180Z,9.4
2017-11-04T10:30:02.771Z,9.4
2017-11-04T10:35:02.567Z,9.4
2017-11-04T10:40:08.019Z,9.7
2017-11-04T10:45:08.060Z,9.9
2017-11-04T10:50:35.678Z,10.2
2017-11-04T11:00:05.814Z,10.5
2017-11-04T11:05:08.100Z,10.6
2017-11-04T11:10:08.483Z,10.8
2017-11-04T11:15:20.311Z,10.9
2017-11-04T11:20:17.646Z,11
2017-11-04T11:25:05.733Z,11.1
2017-11-04T11:30:05.745Z,11.2
2017-11-04T11:35:05.332Z,11.3
2017-11-04T11:40:03.225Z,11.3
2017-11-04T11:45:10.129Z,11.4
2017-11-04T11:50:08.453Z,11.6
2017-11-04T11:55:03.174Z,11.6
2017-11-04T12:00:08.140Z,11.8
2017-11-04T12:05:02.886Z,11.8
2017-11-04T12:10:05.863Z,12
2017-11-04T12:15:05.184Z,12.1
2017-11-04T12:20:15.201Z,12.4
2017-11-04T12:25:05.904Z,12.6
2017-11-04T12:30:03.289Z,12.6
2017-11-04T12:35:08.185Z,13
2017-11-04T12:40:02.536Z,13
2017-11-04T12:45:02.925Z,13.1
2017-11-04T12:50:17.995Z,13.2
2017-11-04T12:55:02.708Z,13.2
2017-11-04T13:00:05.184Z,12.9
2017-11-04T13:05:02.463Z,12.9
2017-11-04T13:10:08.013Z,12.6
2017-11-04T13:15:28.596Z,12.5
2017-11-04T13:20:03.176Z,12.5
2017-11-04T13:25:05.574Z,12.6
2017-11-04T13:30:10.580Z,12.5
2017-11-04T13:35:05.362Z,12.5
2017-11-04T13:40:08.562Z,12.4
2017-11-04T13:45:07.651Z,12.3
2017-11-04T13:50:02.527Z,12.3
2017-11-04T13:55:05.891Z,12.6
2017-11-04T14:00:08.371Z,12.8
2017-11-04T14:05:08.212Z,12.9
2017-11-04T14:10:10.139Z,12.8
2017-11-04T14:15:28.195Z,12.6
2017-11-04T14:20:23.066Z,11.6
2017-11-04T14:25:07.754Z,12.3
2017-11-04T14:30:07.746Z,12.2
2017-11-04T14:35:10.011Z,12.1
2017-11-04T14:40:05.372Z,11.9
2017-11-04T14:45:08.262Z,11.8
2017-11-04T14:50:05.601Z,11.7
2017-11-04T14:55:10.492Z,11.6
2017-11-04T15:00:07.866Z,11.4
2017-11-04T15:05:05.089Z,11.4
2017-11-04T15:10:08.142Z,11.2
2017-11-04T15:15:25.961Z,11.1
2017-11-04T15:20:03.061Z,11.1
2017-11-04T15:25:05.431Z,10.9
2017-11-04T15:30:30.629Z,10.8
2017-11-04T15:35:02.503Z,10.8
2017-11-04T15:40:30.863Z,10.7
2017-11-04T15:45:28.414Z,10.7
2017-11-04T15:50:08.068Z,10.6
2017-11-04T15:55:33.076Z,10.6
2017-11-04T16:00:02.579Z,10.6
2017-11-04T16:05:03.272Z,10.6
2017-11-04T16:10:32.961Z,10.5
2017-11-04T16:15:20.502Z,10.5
2017-11-04T16:20:05.139Z,10.4
2017-11-04T16:25:07.483Z,10.4
2017-11-04T16:30:10.829Z,10.4
2017-11-04T16:35:02.928Z,10.4
2017-11-04T16:40:15.944Z,10.3
2017-11-04T16:45:07.566Z,10.3
2017-11-04T16:50:03.330Z,10.3
2017-11-04T16:55:15.663Z,10.2
2017-11-04T17:00:05.423Z,10.2
2017-11-04T17:05:02.589Z,10.2
2017-11-04T17:10:03.015Z,10.2
2017-11-04T17:15:03.210Z,10.2
2017-11-04T17:20:05.554Z,10.1
2017-11-04T17:25:05.155Z,10.1
2017-11-04T17:30:04.921Z,10.1
2017-11-04T17:35:15.733Z,10
2017-11-04T17:40:18.639Z,10
2017-11-04T17:45:17.724Z,9.9
2017-11-04T17:50:02.444Z,9.9
2017-11-04T17:55:18.267Z,9.8
2017-11-04T18:00:18.025Z,9.7
2017-11-04T18:05:32.916Z,9.7
2017-11-04T18:10:02.894Z,9.7
2017-11-04T18:15:03.048Z,9.6
2017-11-04T18:20:02.885Z,9.6
2017-11-04T18:25:07.610Z,9.4
2017-11-04T18:30:03.432Z,9.4
2017-11-04T18:35:05.472Z,9.4
2017-11-04T18:40:05.865Z,9.3
2017-11-04T18:45:23.620Z,9.3
2017-11-04T18:50:03.114Z,9.3
2017-11-04T18:55:12.917Z,9.2
2017-11-04T19:00:02.581Z,9.2
2017-11-04T19:05:10.850Z,9.2
2017-11-04T19:10:10.109Z,9.3
2017-11-04T19:15:02.655Z,9.3
2017-11-04T19:20:04.988Z,9.5
2017-11-04T19:25:03.014Z,9.5
2017-11-04T19:30:05.360Z,9.5
2017-11-04T19:35:02.446Z,9.5
2017-11-04T19:40:02.767Z,9.5
2017-11-04T19:45:05.415Z,9.5
2017-11-04T19:50:05.152Z,9.5
2017-11-04T19:55:13.418Z,9.5
2017-11-04T20:00:05.589Z,9.6
2017-11-04T20:05:05.226Z,9.5
2017-11-04T20:10:08.084Z,9.5
2017-11-04T20:20:02.944Z,9.5
2017-11-04T20:25:20.254Z,9.5
2017-11-04T20:30:05.819Z,9.4
2017-11-04T20:35:10.517Z,9.4
2017-11-04T20:40:03.197Z,9.4
2017-11-04T20:45:10.927Z,9.3
2017-11-04T20:50:08.170Z,9.3
2017-11-04T20:55:05.291Z,9.3
2017-11-04T21:00:05.070Z,9.3
2017-11-04T21:05:10.799Z,9.3
2017-11-04T21:10:30.353Z,9.4
2017-11-04T21:15:05.183Z,9.4
2017-11-04T21:20:10.168Z,9.4
2017-11-04T21:25:20.780Z,9.4
2017-11-04T21:30:23.156Z,9.5
2017-11-04T21:35:20.308Z,9.5
2017-11-04T21:40:02.910Z,9.5
2017-11-04T21:45:03.079Z,9.5
2017-11-04T21:50:05.398Z,9.6
2017-11-04T21:55:22.804Z,9.6
2017-11-04T22:00:02.421Z,9.6
2017-11-04T22:05:05.559Z,9.5
2017-11-04T22:10:17.587Z,9.5
2017-11-04T22:15:22.807Z,9.5
2017-11-04T22:20:03.319Z,9.5
2017-11-04T22:25:28.340Z,9.6
2017-11-04T22:30:02.840Z,9.6
2017-11-04T22:35:02.510Z,9.6
2017-11-04T22:45:25.761Z,9.5
2017-11-04T22:50:07.861Z,9.4
2017-11-04T22:55:22.776Z,9.3
2017-11-04T23:00:05.792Z,9.3
2017-11-04T23:05:18.188Z,9.2
2017-11-04T23:10:21.062Z,9.2
2017-11-04T23:15:17.640Z,9.1
2017-11-04T23:20:03.263Z,9.1
2017-11-04T23:25:13.061Z,9.1
2017-11-04T23:30:10.308Z,9.1
2017-11-04T23:35:08.386Z,9.1
2017-11-04T23:40:07.633Z,9.1
2017-11-04T23:45:02.744Z,9.1
2017-11-04T23:50:15.164Z,9.1
2017-11-04T23:55:13.309Z,9.2
